createdAt,value
2022-12-29T00:01:12.020Z,4.60
2022-12-29T00:03:41.888Z,2.50
2022-12-29T00:06:11.847Z,2.57
2022-12-29T00:08:44.116Z,1.20
2022-12-29T00:11:16.573Z,1.50
2022-12-29T00:13:59.175Z,1.20
2022-12-29T00:16:29.792Z,1.30
2022-12-29T00:18:59.638Z,4.03
2022-12-29T00:21:42.955Z,1.20
2022-12-29T00:24:30.479Z,1.97
2022-12-29T00:27:20.864Z,1.53
2022-12-29T00:30:03.385Z,2.10
2022-12-29T00:32:45.577Z,1.10
2022-12-29T00:35:18.432Z,1.00
2022-12-29T00:38:04.035Z,2.90
2022-12-29T00:40:48.786Z,6.20
2022-12-29T00:43:30.934Z,2.20
2022-12-29T00:46:00.641Z,1.10
2022-12-29T00:48:42.843Z,1.10
2022-12-29T00:51:12.589Z,2.67
2022-12-29T00:53:42.335Z,1.20
2022-12-29T00:56:14.631Z,2.40
2022-12-29T00:58:44.299Z,2.03
2022-12-29T01:01:14.026Z,2.90
2022-12-29T01:03:43.758Z,2.70
2022-12-29T01:06:14.595Z,1.10
2022-12-29T01:08:44.288Z,0.93
2022-12-29T01:11:14.427Z,1.20
2022-12-29T01:13:44.857Z,0.93
2022-12-29T01:16:14.886Z,3.00
2022-12-29T01:18:45.061Z,0.97
2022-12-29T01:21:14.757Z,0.70
2022-12-29T01:23:44.381Z,1.00
2022-12-29T01:26:18.576Z,0.80
2022-12-29T01:28:48.555Z,0.80
2022-12-29T01:31:18.849Z,0.90
2022-12-29T01:33:48.621Z,7.33
2022-12-29T01:36:20.495Z,5.70
2022-12-29T01:38:50.255Z,0.80
2022-12-29T01:41:22.734Z,1.63
2022-12-29T01:43:56.107Z,1.33
2022-12-29T01:46:30.448Z,1.20
2022-12-29T01:49:06.491Z,1.20
2022-12-29T01:51:40.210Z,0.80
2022-12-29T01:54:15.698Z,0.80
2022-12-29T01:56:49.465Z,1.70
2022-12-29T01:59:23.953Z,0.90
2022-12-29T02:01:54.761Z,0.80
2022-12-29T02:04:27.587Z,0.97
2022-12-29T02:07:01.952Z,0.80
2022-12-29T02:09:32.638Z,0.80
2022-12-29T02:12:05.687Z,0.90
2022-12-29T02:14:35.680Z,2.60
2022-12-29T02:17:13.491Z,0.80
2022-12-29T02:20:24.532Z,1.00
2022-12-29T02:23:12.338Z,1.38
2022-12-29T02:26:10.210Z,0.90
2022-12-29T02:29:24.670Z,0.70
2022-12-29T02:32:02.927Z,0.80
2022-12-29T02:34:45.799Z,0.70
2022-12-29T02:37:23.507Z,1.17
2022-12-29T02:39:59.481Z,1.23
2022-12-29T02:42:38.133Z,1.73
2022-12-29T02:45:14.735Z,0.80
2022-12-29T02:47:58.727Z,0.80
2022-12-29T02:50:36.271Z,1.00
2022-12-29T02:53:10.241Z,2.17
2022-12-29T02:55:37.357Z,0.80
2022-12-29T02:58:22.458Z,0.67
2022-12-29T03:01:11.435Z,1.27
2022-12-29T03:03:55.644Z,1.50
2022-12-29T03:06:36.573Z,1.87
2022-12-29T03:09:18.673Z,1.73
2022-12-29T03:12:12.254Z,0.90
2022-12-29T03:15:05.661Z,0.70
2022-12-29T03:17:44.208Z,1.57
2022-12-29T03:20:24.740Z,2.77
2022-12-29T03:23:03.317Z,0.60
2022-12-29T03:25:40.573Z,2.80
2022-12-29T03:28:18.009Z,0.70
2022-12-29T03:30:50.752Z,1.00
2022-12-29T03:33:27.694Z,1.53
2022-12-29T03:36:03.492Z,0.80
2022-12-29T03:38:41.000Z,0.77
2022-12-29T03:41:14.911Z,0.70
2022-12-29T03:43:45.035Z,1.87
2022-12-29T03:46:15.218Z,1.20
2022-12-29T03:48:45.708Z,0.70
2022-12-29T03:51:18.917Z,0.70
2022-12-29T03:53:48.727Z,0.70
2022-12-29T03:56:18.458Z,0.90
2022-12-29T03:58:48.481Z,0.90
2022-12-29T04:01:23.198Z,1.50
2022-12-29T04:03:52.931Z,0.70
2022-12-29T04:06:26.335Z,2.17
2022-12-29T04:09:05.033Z,1.00
2022-12-29T04:11:38.573Z,0.80
2022-12-29T04:14:09.163Z,1.13
2022-12-29T04:16:40.002Z,0.93
2022-12-29T04:19:11.340Z,1.20
2022-12-29T04:21:43.653Z,0.80
2022-12-29T04:24:14.083Z,1.53
2022-12-29T04:26:45.387Z,1.27
2022-12-29T04:29:37.944Z,1.10
2022-12-29T04:32:29.282Z,0.90
2022-12-29T04:34:59.533Z,1.73
2022-12-29T04:37:31.925Z,3.07
2022-12-29T04:40:01.633Z,1.13
2022-12-29T04:42:32.742Z,0.87
2022-12-29T04:45:03.420Z,3.53
2022-12-29T04:47:50.333Z,1.77
2022-12-29T04:50:34.013Z,1.13
2022-12-29T04:53:21.734Z,1.37
2022-12-29T04:55:53.617Z,1.17
2022-12-29T04:58:24.326Z,1.63
2022-12-29T05:00:55.740Z,2.13
2022-12-29T05:03:28.234Z,1.60
2022-12-29T05:05:59.315Z,3.37
2022-12-29T05:08:31.602Z,1.37
2022-12-29T05:11:03.710Z,2.40
2022-12-29T05:13:33.408Z,2.00
2022-12-29T05:16:03.731Z,1.10
2022-12-29T05:18:33.607Z,1.33
2022-12-29T05:21:03.433Z,2.40
2022-12-29T05:23:35.984Z,1.57
2022-12-29T05:26:09.155Z,2.27
2022-12-29T05:28:57.093Z,1.07
2022-12-29T05:31:26.888Z,0.60
2022-12-29T05:33:56.943Z,3.10
2022-12-29T05:36:26.800Z,2.50
2022-12-29T05:39:03.608Z,1.40
2022-12-29T05:41:33.722Z,1.27
2022-12-29T05:44:03.521Z,0.90
2022-12-29T05:46:33.954Z,1.43
2022-12-29T05:49:12.970Z,4.50
2022-12-29T05:52:07.631Z,3.00
2022-12-29T05:54:40.747Z,0.73
2022-12-29T05:57:15.412Z,2.03
2022-12-29T05:59:48.201Z,1.83
2022-12-29T06:02:18.494Z,0.80
2022-12-29T06:04:49.417Z,2.23
2022-12-29T06:07:19.295Z,0.93
2022-12-29T06:09:59.225Z,2.73
2022-12-29T06:12:31.177Z,4.23
2022-12-29T06:15:00.952Z,1.43
2022-12-29T06:17:30.805Z,1.90
2022-12-29T06:20:00.581Z,1.47
2022-12-29T06:22:33.617Z,2.20
2022-12-29T06:25:08.636Z,1.00
2022-12-29T06:27:40.975Z,1.90
2022-12-29T06:30:12.623Z,2.30
2022-12-29T06:32:43.706Z,0.80
2022-12-29T06:35:23.336Z,0.70
2022-12-29T06:37:55.092Z,5.10
2022-12-29T06:40:27.452Z,3.43
2022-12-29T06:43:33.292Z,3.83
2022-12-29T06:46:22.238Z,7.63
2022-12-29T06:48:53.095Z,1.63
2022-12-29T06:51:22.891Z,3.73
2022-12-29T06:53:52.680Z,2.20
2022-12-29T06:56:24.998Z,1.80
2022-12-29T06:58:54.697Z,3.50
2022-12-29T07:01:24.639Z,3.03
2022-12-29T07:03:55.479Z,4.97
2022-12-29T07:06:25.295Z,3.90
2022-12-29T07:08:56.246Z,2.50
2022-12-29T07:11:29.711Z,1.43
2022-12-29T07:14:02.605Z,1.13
2022-12-29T07:16:33.025Z,2.40
2022-12-29T07:19:02.834Z,1.97
2022-12-29T07:21:32.662Z,3.33
2022-12-29T07:24:03.432Z,2.20
2022-12-29T07:26:37.316Z,1.67
2022-12-29T07:29:07.319Z,3.67
2022-12-29T07:31:38.084Z,3.17
2022-12-29T07:34:07.871Z,1.77
2022-12-29T07:36:37.858Z,0.90
2022-12-29T07:39:08.236Z,4.43
2022-12-29T07:41:41.174Z,4.00
2022-12-29T07:44:16.629Z,1.87
2022-12-29T07:46:59.019Z,4.57
2022-12-29T07:49:30.737Z,2.33
2022-12-29T07:52:00.999Z,5.70
2022-12-29T07:54:31.061Z,2.60
2022-12-29T07:57:04.862Z,1.10
2022-12-29T07:59:35.082Z,2.53
2022-12-29T08:02:05.989Z,1.67
2022-12-29T08:04:35.856Z,3.70
2022-12-29T08:07:05.610Z,6.20
2022-12-29T08:09:35.612Z,1.37
2022-12-29T08:12:09.527Z,5.00
2022-12-29T08:14:39.265Z,4.50
2022-12-29T08:17:09.098Z,4.03
2022-12-29T08:19:38.924Z,9.10
2022-12-29T08:22:09.636Z,4.80
2022-12-29T08:24:39.420Z,3.40
2022-12-29T08:27:19.943Z,7.80
2022-12-29T08:29:51.855Z,5.70
2022-12-29T08:32:22.312Z,7.27
2022-12-29T08:34:52.027Z,9.63
2022-12-29T08:37:26.272Z,7.47
2022-12-29T08:40:04.567Z,8.30
2022-12-29T08:42:37.991Z,3.23
2022-12-29T08:45:09.682Z,6.10
2022-12-29T08:47:39.595Z,8.17
2022-12-29T08:50:11.097Z,3.60
2022-12-29T08:52:41.875Z,5.60
2022-12-29T08:55:12.652Z,11.40
2022-12-29T08:57:46.314Z,6.00
2022-12-29T09:00:22.583Z,8.20
2022-12-29T09:02:52.429Z,7.00
2022-12-29T09:05:23.549Z,5.53
2022-12-29T09:07:54.322Z,5.60
2022-12-29T09:10:24.617Z,7.40
2022-12-29T09:12:57.102Z,7.70
2022-12-29T09:15:26.799Z,6.50
2022-12-29T09:17:56.631Z,6.50
2022-12-29T09:20:27.418Z,4.63
2022-12-29T09:22:58.196Z,11.93
2022-12-29T09:25:28.919Z,3.57
2022-12-29T09:28:03.999Z,4.63
2022-12-29T09:30:34.682Z,5.00
2022-12-29T09:33:04.497Z,5.70
2022-12-29T09:35:35.237Z,6.70
2022-12-29T09:38:04.941Z,5.57
2022-12-29T09:40:37.043Z,6.03
2022-12-29T09:43:34.865Z,7.43
2022-12-29T09:46:15.698Z,4.33
2022-12-29T09:48:51.525Z,4.77
2022-12-29T09:51:27.347Z,7.13
2022-12-29T09:54:02.406Z,6.80
2022-12-29T09:56:32.244Z,6.80
2022-12-29T09:59:14.334Z,4.80
2022-12-29T10:01:51.598Z,6.10
2022-12-29T10:04:21.560Z,4.40
2022-12-29T10:09:57.297Z,5.60
2022-12-29T10:12:36.180Z,5.90
2022-12-29T10:15:17.723Z,10.10
2022-12-29T10:17:58.403Z,5.33
2022-12-29T10:20:34.291Z,8.97
2022-12-29T10:23:28.735Z,6.00
2022-12-29T10:26:01.158Z,4.33
2022-12-29T10:28:41.414Z,5.50
2022-12-29T10:31:21.082Z,4.87
2022-12-29T10:33:55.878Z,6.73
2022-12-29T10:36:34.036Z,6.87
2022-12-29T10:39:17.136Z,6.10
2022-12-29T10:41:53.483Z,9.50
2022-12-29T10:44:24.422Z,4.20
2022-12-29T10:47:03.377Z,5.47
2022-12-29T10:49:36.325Z,7.10
2022-12-29T10:52:07.751Z,5.27
2022-12-29T10:54:43.405Z,5.37
2022-12-29T10:57:21.198Z,5.57
2022-12-29T10:59:50.903Z,7.97
2022-12-29T11:02:53.877Z,4.83
2022-12-29T11:05:32.625Z,10.70
2022-12-29T11:08:06.212Z,5.03
2022-12-29T11:10:42.242Z,7.53
2022-12-29T11:13:17.776Z,3.23
2022-12-29T11:15:49.986Z,5.77
2022-12-29T11:18:28.068Z,9.23
2022-12-29T11:21:01.248Z,3.20
2022-12-29T11:23:36.976Z,7.27
2022-12-29T11:26:16.591Z,5.00
2022-12-29T11:28:49.221Z,5.50
2022-12-29T11:31:25.593Z,7.80
2022-12-29T11:33:57.906Z,10.13
2022-12-29T11:36:28.967Z,8.30
2022-12-29T11:38:59.621Z,5.03
2022-12-29T11:41:32.255Z,14.10
2022-12-29T11:44:05.167Z,8.03
2022-12-29T11:46:38.638Z,3.63
2022-12-29T11:49:17.490Z,9.37
2022-12-29T11:51:50.578Z,6.00
2022-12-29T11:54:25.872Z,7.33
2022-12-29T11:56:58.323Z,4.93
2022-12-29T11:59:42.054Z,10.77
2022-12-29T12:02:43.111Z,6.60
2022-12-29T12:05:25.020Z,7.00
2022-12-29T12:08:00.751Z,10.87
2022-12-29T12:10:38.622Z,6.00
2022-12-29T12:13:18.260Z,4.87
2022-12-29T12:15:57.164Z,7.20
2022-12-29T12:18:38.269Z,8.30
2022-12-29T12:21:18.438Z,8.40
2022-12-29T12:24:09.177Z,6.37
2022-12-29T12:26:43.040Z,7.20
2022-12-29T12:29:17.235Z,8.17
2022-12-29T12:31:53.556Z,7.00
2022-12-29T12:34:31.798Z,7.30
2022-12-29T12:37:30.739Z,8.93
2022-12-29T12:40:23.004Z,7.23
2022-12-29T12:43:04.116Z,6.20
2022-12-29T12:45:49.636Z,7.30
2022-12-29T12:48:32.821Z,6.50
2022-12-29T12:51:13.895Z,6.67
2022-12-29T12:54:00.883Z,6.67
2022-12-29T12:56:46.185Z,9.23
2022-12-29T12:59:30.921Z,10.53
2022-12-29T13:02:14.276Z,10.30
2022-12-29T13:05:00.239Z,8.53
2022-12-29T13:07:44.382Z,4.17
2022-12-29T13:10:36.235Z,9.93
2022-12-29T13:13:25.637Z,4.70
2022-12-29T13:16:01.912Z,9.00
2022-12-29T13:18:41.558Z,8.53
2022-12-29T13:21:23.350Z,5.33
2022-12-29T13:24:05.024Z,8.97
2022-12-29T13:26:43.343Z,8.60
2022-12-29T13:29:20.834Z,12.73
2022-12-29T13:32:00.171Z,6.00
2022-12-29T13:34:43.410Z,4.70
2022-12-29T13:37:18.566Z,6.57
2022-12-29T13:39:54.056Z,17.97
2022-12-29T13:42:29.419Z,8.87
2022-12-29T13:45:05.556Z,11.30
2022-12-29T13:47:40.706Z,6.33
2022-12-29T13:50:19.031Z,10.10
2022-12-29T13:52:57.945Z,8.83
2022-12-29T13:55:35.424Z,8.43
2022-12-29T13:58:23.251Z,8.00
2022-12-29T14:01:00.260Z,7.97
2022-12-29T14:03:52.989Z,12.53
2022-12-29T14:06:27.877Z,11.17
2022-12-29T14:09:01.105Z,9.73
2022-12-29T14:11:36.210Z,10.83
2022-12-29T14:14:22.806Z,5.70
2022-12-29T14:16:54.600Z,6.53
2022-12-29T14:19:30.943Z,8.27
2022-12-29T14:22:04.430Z,10.00
2022-12-29T14:24:48.934Z,4.43
2022-12-29T14:27:47.872Z,9.10
2022-12-29T14:30:52.993Z,7.60
2022-12-29T14:33:27.511Z,5.60
2022-12-29T14:36:00.074Z,9.63
2022-12-29T14:38:32.617Z,8.43
2022-12-29T14:41:30.148Z,13.40
2022-12-29T14:44:20.023Z,7.23
2022-12-29T14:47:01.175Z,6.30
2022-12-29T14:49:34.832Z,7.07
2022-12-29T14:52:18.753Z,10.47
2022-12-29T14:54:56.051Z,7.13
2022-12-29T14:57:38.356Z,9.27
2022-12-29T15:00:20.172Z,7.53
2022-12-29T15:03:03.831Z,4.30
2022-12-29T15:05:38.629Z,9.00
2022-12-29T15:08:10.987Z,9.67
2022-12-29T15:10:48.967Z,8.50
2022-12-29T15:13:20.970Z,10.87
2022-12-29T15:15:52.058Z,8.10
2022-12-29T15:18:31.033Z,11.40
2022-12-29T15:21:03.349Z,14.80
2022-12-29T15:23:36.432Z,5.57
2022-12-29T15:26:08.144Z,8.60
2022-12-29T15:28:42.797Z,13.33
2022-12-29T15:31:16.793Z,6.47
2022-12-29T15:33:52.208Z,9.17
2022-12-29T15:36:24.720Z,11.90
2022-12-29T15:38:55.461Z,5.40
2022-12-29T15:41:56.501Z,8.33
2022-12-29T15:44:32.361Z,15.40
2022-12-29T15:47:06.370Z,10.30
2022-12-29T15:49:39.802Z,9.00
2022-12-29T15:52:11.452Z,9.90
2022-12-29T15:54:42.178Z,5.87
2022-12-29T15:57:26.138Z,9.27
2022-12-29T15:59:57.596Z,11.47
2022-12-29T16:02:29.093Z,10.57
2022-12-29T16:05:17.618Z,17.43
2022-12-29T16:07:56.739Z,8.30
2022-12-29T16:10:34.639Z,11.00
2022-12-29T16:13:17.405Z,10.83
2022-12-29T16:15:49.888Z,6.17
2022-12-29T16:18:29.345Z,10.77
2022-12-29T16:21:02.878Z,12.90
2022-12-29T16:23:34.203Z,12.60
2022-12-29T16:26:08.876Z,10.40
2022-12-29T16:28:43.743Z,8.07
2022-12-29T16:31:22.837Z,8.47
2022-12-29T16:33:54.247Z,7.20
2022-12-29T16:36:37.740Z,11.50
2022-12-29T16:39:25.321Z,9.33
2022-12-29T16:41:56.951Z,8.63
2022-12-29T16:44:28.491Z,3.90
2022-12-29T16:47:08.879Z,8.60
2022-12-29T16:49:40.421Z,9.40
2022-12-29T16:52:22.541Z,11.23
2022-12-29T16:54:56.750Z,12.73
2022-12-29T16:57:29.412Z,9.93
2022-12-29T17:00:03.003Z,9.50
2022-12-29T17:02:36.105Z,9.93
2022-12-29T17:05:07.536Z,11.93
2022-12-29T17:07:41.193Z,6.43
2022-12-29T17:10:13.464Z,12.13
2022-12-29T17:12:45.799Z,14.27
2022-12-29T17:15:19.089Z,9.93
2022-12-29T17:17:51.870Z,9.90
2022-12-29T17:20:25.183Z,7.93
2022-12-29T17:22:58.150Z,7.03
2022-12-29T17:25:33.134Z,10.70
2022-12-29T17:28:06.728Z,8.30
2022-12-29T17:30:37.913Z,5.77
2022-12-29T17:33:11.122Z,9.43
2022-12-29T17:35:42.148Z,13.87
2022-12-29T17:38:21.963Z,8.60
2022-12-29T17:40:53.452Z,7.87
2022-12-29T17:43:23.420Z,10.07
2022-12-29T17:45:57.478Z,4.17
2022-12-29T17:48:27.913Z,6.30
2022-12-29T17:51:00.809Z,3.13
2022-12-29T17:53:33.796Z,6.97
2022-12-29T17:56:03.645Z,7.40
2022-12-29T17:58:35.603Z,3.63
2022-12-29T18:01:08.191Z,3.67
2022-12-29T18:03:41.685Z,4.53
2022-12-29T18:06:14.500Z,4.13
2022-12-29T18:08:47.503Z,8.60
2022-12-29T18:11:25.944Z,1.80
2022-12-29T18:13:56.543Z,4.43
2022-12-29T18:16:26.401Z,4.23
2022-12-29T18:18:56.347Z,3.00
2022-12-29T18:21:27.746Z,2.17
2022-12-29T18:24:00.184Z,3.90
2022-12-29T18:26:35.897Z,5.77
2022-12-29T18:29:07.771Z,4.07
2022-12-29T18:31:37.891Z,5.90
2022-12-29T18:34:19.370Z,2.97
2022-12-29T18:36:50.548Z,4.73
2022-12-29T18:39:29.777Z,5.37
2022-12-29T18:42:01.001Z,5.70
2022-12-29T18:44:31.723Z,7.07
2022-12-29T18:47:04.653Z,9.57
2022-12-29T18:49:36.825Z,8.70
2022-12-29T18:52:09.186Z,5.43
2022-12-29T18:54:43.830Z,10.80
2022-12-29T18:57:14.500Z,6.63
2022-12-29T18:59:46.234Z,8.40
2022-12-29T19:02:20.588Z,8.63
2022-12-29T19:04:53.466Z,10.60
2022-12-29T19:07:29.141Z,9.83
2022-12-29T19:10:02.626Z,6.70
2022-12-29T19:12:33.505Z,8.37
2022-12-29T19:15:07.134Z,7.90
2022-12-29T19:17:38.010Z,5.30
2022-12-29T19:20:28.455Z,6.87
2022-12-29T19:23:00.266Z,5.37
2022-12-29T19:25:33.867Z,7.43
2022-12-29T19:28:07.188Z,7.50
2022-12-29T19:30:38.008Z,7.73
2022-12-29T19:33:10.060Z,5.50
2022-12-29T19:35:41.372Z,5.10
2022-12-29T19:38:15.584Z,4.07
2022-12-29T19:40:50.488Z,4.13
2022-12-29T19:43:21.762Z,6.50
2022-12-29T19:45:53.912Z,7.47
2022-12-29T19:48:24.044Z,14.10
2022-12-29T19:50:54.014Z,3.40
2022-12-29T19:53:23.906Z,5.57
2022-12-29T19:55:57.332Z,5.27
2022-12-29T19:58:28.151Z,7.37
2022-12-29T20:00:59.030Z,7.50
2022-12-29T20:03:28.808Z,4.47
2022-12-29T20:05:59.728Z,9.17
2022-12-29T20:08:30.001Z,6.90
2022-12-29T20:11:08.504Z,4.90
2022-12-29T20:13:38.870Z,7.37
2022-12-29T20:16:12.677Z,4.47
2022-12-29T20:18:44.067Z,9.93
2022-12-29T20:21:16.298Z,7.40
2022-12-29T20:23:47.815Z,5.83
2022-12-29T20:26:21.885Z,8.10
2022-12-29T20:28:53.681Z,7.10
2022-12-29T20:31:27.750Z,7.60
2022-12-29T20:33:58.749Z,5.53
2022-12-29T20:36:31.331Z,5.73
2022-12-29T20:39:04.438Z,10.20
2022-12-29T20:41:37.545Z,6.17
2022-12-29T20:44:07.841Z,5.90
2022-12-29T20:46:43.546Z,5.10
2022-12-29T20:49:14.272Z,6.80
2022-12-29T20:52:14.839Z,8.03
2022-12-29T20:54:39.439Z,10.70
2022-12-29T20:57:12.269Z,6.70
2022-12-29T20:59:43.173Z,9.27
2022-12-29T21:02:22.009Z,7.03
2022-12-29T21:07:44.769Z,9.73
2022-12-29T21:10:14.522Z,17.93
2022-12-29T21:12:48.647Z,6.67
2022-12-29T21:15:18.855Z,8.83
2022-12-29T21:17:49.791Z,10.03
2022-12-29T21:20:30.210Z,13.60
2022-12-29T21:23:02.309Z,7.77
2022-12-29T21:25:37.429Z,10.23
2022-12-29T21:28:12.289Z,10.47
2022-12-29T21:30:42.495Z,11.83
2022-12-29T21:33:13.376Z,7.67
2022-12-29T21:35:43.628Z,7.87
2022-12-29T21:38:13.759Z,10.63
2022-12-29T21:40:43.840Z,8.27
2022-12-29T21:43:16.392Z,12.57
2022-12-29T21:45:49.969Z,8.63
2022-12-29T21:48:30.175Z,10.60
2022-12-29T21:51:31.979Z,13.13
2022-12-29T21:54:24.199Z,19.97
2022-12-29T21:56:55.028Z,8.90
2022-12-29T21:59:41.965Z,10.17
2022-12-29T22:02:34.917Z,16.17
2022-12-29T22:05:17.869Z,19.23
2022-12-29T22:08:00.028Z,9.03
2022-12-29T22:10:42.239Z,18.77
2022-12-29T22:13:11.988Z,12.93
2022-12-29T22:15:45.436Z,13.33
2022-12-29T22:18:16.404Z,15.57
2022-12-29T22:20:46.168Z,12.33
2022-12-29T22:23:16.900Z,15.90
2022-12-29T22:25:48.693Z,12.90
2022-12-29T22:28:18.835Z,16.87
2022-12-29T22:30:52.325Z,16.23
2022-12-29T22:33:22.316Z,14.63
2022-12-29T22:35:53.145Z,15.47
2022-12-29T22:38:25.108Z,11.30
2022-12-29T22:41:01.321Z,15.70
2022-12-29T22:43:32.359Z,13.37
2022-12-29T22:46:08.810Z,20.50
2022-12-29T22:48:41.074Z,18.30
2022-12-29T22:51:10.858Z,18.13
2022-12-29T22:53:41.798Z,18.60
2022-12-29T22:56:15.367Z,18.03
2022-12-29T22:58:47.802Z,21.10
2022-12-29T23:01:23.363Z,13.53
2022-12-29T23:04:05.968Z,15.73
2022-12-29T23:06:44.320Z,17.73
2022-12-29T23:09:19.394Z,20.70
2022-12-29T23:11:49.575Z,21.07
2022-12-29T23:14:19.651Z,12.77
2022-12-29T23:16:53.148Z,18.77
2022-12-29T23:19:22.986Z,16.13
2022-12-29T23:21:54.402Z,17.27
2022-12-29T23:24:24.385Z,20.77
2022-12-29T23:26:56.128Z,14.93
2022-12-29T23:29:25.846Z,25.03
2022-12-29T23:31:58.176Z,15.87
2022-12-29T23:34:28.028Z,19.73
2022-12-29T23:36:57.741Z,19.87
2022-12-29T23:39:28.691Z,17.30
2022-12-29T23:41:58.429Z,17.10
2022-12-29T23:44:28.154Z,18.40
2022-12-29T23:47:00.464Z,24.17
2022-12-29T23:49:30.188Z,23.60
2022-12-29T23:51:59.864Z,19.60
2022-12-29T23:54:29.571Z,13.63
2022-12-29T23:56:59.247Z,15.13
2022-12-29T23:59:29.129Z,19.10
